Používaním stránok prevádzkovaných PROFIPILOT, s.r.o. súhlasíte s používaním cookies, ktoré nám pomáhajú zabezpečiť lepšie služby.OK

Briefing

MAPA | METAR | TAF | METEO SITUÁCIA
MAPA | METAR | TAF | METEO SITUÁCIA

Predpoveď na dnes

NOC: Oblačno až zamračené, na východe spočiatku aj zmenšená oblačnosť. V západnej polovici územia na viacerých miestach, inde ojedinele sneženie, v polohách do cca 300 m aj dážď so snehom alebo dážď. Najnižšia nočná teplota +1 až -4 st., vo východnej polovici územia ojedinele chladnejšie. Slabý, v južnej polovici západného Slovenska juhozápadný až západný vietor 2 až 7 m/s (5 až 25 km/h), nad ránom zoslabne. DEŇ: Oblačno až zamračené a na viacerých miestach sneženie alebo dážď so snehom, na západe dopoludnia a na strednom Slovensku k večeru v nižších polohách dážď so snehom alebo dážď. Na východe dopoludnia zrážky len ojedinele. Ojedinele hmlisto. Najvyššia denná teplota -1 až +4, v južnej polovici západného Slovenska okolo 6 st. Teplota na horách vo výške 1500 m okolo -4 st. a popoludní otepľovanie. Slabý, na juhozápade popoludní západný vietor do 6 m/s (20 km/h). Predpokladané množstvo zrážok: NOC: do 8 mm/ od cca 300 m 1 až 10 cm snehu. DEŇ: do 8 mm/ od cca 500 m, na východe od 300 m 1 až 10 cm snehu.

SHMÚ, OMPaV, PV 20.11.2017 22:00 SEČ

MAPA | METAR | TAF | METEO SITUÁCIA

TAF - Letisková predpoveď

20.11.2017 - 11:00 UTC (Včera)

TAF LZSL 201100Z 2012/2021 30010KT 9999 SCT040
     TEMPO 2012/2015 4000 -SHSN FEW020TCU BKN030
     BECMG 2014/2016 VRB02KT
     BECMG 2018/2020 3500 -SN BKN030 OVC060=
 TAF LZPP 201100Z 2012/2021 31010KT 9999 FEW020 SCT045
     TEMPO 2012/2015 29016KT 5000 -SHRA BKN020 FEW030TCU
     TEMPO 2017/2021 3500 -RASN BKN025 OVC070
     BECMG 2018/2020 29006KT=
 TAF LZZI 201100Z 2012/2021 26010KT 9999 BKN030
     TEMPO 2012/2015 24014KT 4500 -SHRASN
     PROB30 TEMPO 2012/2014 0800 SHSN BKN007 SCT020TCU
     BECMG 2017/2019 23005KT 2500 -SN BKN014 OVC050=
 

20.11.2017 - 05:00 UTC (Včera)

TAF AMD LZKZ 200908Z 2009/2106 15004KT 1200 BCFG FEW010 SCT030
     TEMPO 2009/2010 0350 FZFG BKN001
     BECMG 2010/2012 9999
     BECMG 2015/2017 4500 BR
     BECMG 2100/2102 01004KT FEW030 BKN080=
 
MAPA | METAR | TAF | METEO SITUÁCIA

METAR - Letisková meteo správa

Letisková meteorologická správa METAR

Meteorologické informácie z ďalších profesionálnych meteorologických staníc SHMÚ zobrazené v tvare zodpovedajúcom pravidlám kódovania správ METAR sú uvedené v položke „METSYN Informácie o správe METAR

21.11.2017 - 00:00 UTC

METAR LZIB 210000Z 27012KT 9999 -RA FEW015 SCT050 BKN100 04/01
 Q1017=
 METAR LZKZ 210000Z VRB02KT 3000 1200S BCFG FEW001 M02/M03 Q1014=
 METAR LZPP 210000Z AUTO VRB02KT 9999 FEW023/// SCT028/// OVC099///
 03/M00 Q1016=
 METAR LZSL 210000Z 00000KT 6000 SCT013 OVC026 01/M00 Q1015=
 METAR LZTT 210000Z 25012KT 9999 FEW011 SCT016 M01/M03 Q1012=
 METAR LZZI 210000Z 29004KT 9999 SCT014 OVC020 02/01 Q1014=
 

20.11.2017 - 23:30 UTC

METAR LZIB 202330Z 27014KT 9999 -RA FEW015 SCT082 BKN096 04/00
 Q1017=
 METAR LZKZ 202330Z VRB02KT 6000 BCFG FEW002 M02/M03 Q1015=
 METAR LZPP 202330Z AUTO VRB02KT 9999 OVC100/// 03/M00 Q1016=
 METAR LZSL 202330Z VRB01KT 8000 FEW012 OVC024 01/M00 Q1015=
 METAR LZTT 202330Z 24012KT 9999 FEW013 SCT022 M01/M03 Q1012=
 METAR LZZI 202330Z 29005KT 9999 FEW011 OVC020 02/01 Q1014=
 
Údaje nie sú momentálne k dispozícii
načítavam...